Time;durP1;ratioP1;P1;durP2;ratioP2;P2;SDS_P1;SDS_P2;PMS_P1;PMS_P2;Temp;Humidity;BMP_temperature;BMP_pressure;BME280_temperature;BME280_humidity;BME280_pressure;Samples;Min_cycle;Max_cycle;Signal;HPM_P1;HPM_P2
2021/10/29 00:01:29;;;;;;;11.90;5.57;;;10.50;99.60;;;;;;4947022;29;20071;-81
2021/10/29 00:03:54;;;;;;;13.63;7.25;;;10.60;99.60;;;;;;4914219;29;20046;-81
2021/10/29 00:06:20;;;;;;;8.32;5.63;;;10.60;99.90;;;;;;4934048;29;20062;-82
2021/10/29 00:08:46;;;;;;;9.77;6.65;;;10.60;99.50;;;;;;4897158;29;20059;-82
2021/10/29 00:11:11;;;;;;;12.57;6.35;;;10.60;99.50;;;;;;4929648;29;20050;-81
2021/10/29 00:13:37;;;;;;;10.15;5.65;;;10.50;99.50;;;;;;4915970;28;20045;-82
2021/10/29 00:16:02;;;;;;;7.85;5.20;;;10.50;99.50;;;;;;4927586;29;20035;-81
2021/10/29 00:18:28;;;;;;;11.90;6.07;;;10.60;99.50;;;;;;4933150;28;20035;-81
2021/10/29 00:20:54;;;;;;;11.48;6.03;;;10.60;99.40;;;;;;4918558;29;20035;-81
2021/10/29 00:23:21;;;;;;;9.55;6.45;;;10.60;99.30;;;;;;4945684;28;20036;-81
2021/10/29 00:25:47;;;;;;;10.48;6.57;;;10.60;99.60;;;;;;4917569;29;20058;-82
2021/10/29 00:28:12;;;;;;;12.40;6.72;;;10.60;99.30;;;;;;4915917;29;20126;-81
2021/10/29 00:30:38;;;;;;;9.93;5.88;;;10.60;99.40;;;;;;4939197;28;20031;-81
2021/10/29 00:33:03;;;;;;;10.38;5.88;;;10.60;99.30;;;;;;4917822;29;20046;-81
2021/10/29 00:35:29;;;;;;;9.48;5.95;;;10.60;99.30;;;;;;4913101;28;20027;-82
2021/10/29 00:37:55;;;;;;;9.15;5.80;;;10.60;99.30;;;;;;4906503;29;20034;-81
2021/10/29 00:40:20;;;;;;;10.10;6.18;;;10.50;99.30;;;;;;4889778;29;20427;-81
2021/10/29 00:42:46;;;;;;;9.90;6.30;;;10.60;99.40;;;;;;4930961;29;20031;-81
2021/10/29 00:45:12;;;;;;;9.43;6.05;;;10.70;99.30;;;;;;4902048;29;20373;-81
2021/10/29 00:47:37;;;;;;;12.68;5.43;;;10.60;99.10;;;;;;4944072;29;20040;-82
2021/10/29 00:50:04;;;;;;;9.20;5.10;;;10.60;99.30;;;;;;4913702;29;20519;-82
2021/10/29 00:52:29;;;;;;;9.98;6.05;;;10.60;99.20;;;;;;4929652;29;20108;-81
2021/10/29 00:54:55;;;;;;;8.05;5.35;;;10.60;99.40;;;;;;4918613;29;20035;-81
2021/10/29 00:57:21;;;;;;;9.10;5.97;;;10.60;99.30;;;;;;4918572;29;20031;-81
2021/10/29 00:59:46;;;;;;;9.63;6.22;;;10.60;99.40;;;;;;4929292;28;20139;-81
2021/10/29 01:02:12;;;;;;;7.35;5.22;;;10.50;99.50;;;;;;4936768;29;20488;-81
2021/10/29 01:04:38;;;;;;;11.93;5.97;;;10.60;99.40;;;;;;4931562;28;20039;-82
2021/10/29 01:07:04;;;;;;;7.65;6.00;;;10.50;99.50;;;;;;4929146;29;20043;-81
2021/10/29 01:09:29;;;;;;;8.73;5.68;;;10.50;99.50;;;;;;4906925;28;20034;-81
2021/10/29 01:11:57;;;;;;;7.82;5.57;;;10.50;99.50;;;;;;4903883;29;20119;-82
2021/10/29 01:14:23;;;;;;;9.85;6.07;;;10.50;99.60;;;;;;4913814;29;20036;-81
2021/10/29 01:16:48;;;;;;;9.45;5.30;;;10.50;99.70;;;;;;4929020;29;20480;-81
2021/10/29 01:19:14;;;;;;;8.75;5.28;;;10.50;99.60;;;;;;4942620;28;20507;-81
2021/10/29 01:21:39;;;;;;;10.93;5.38;;;10.50;99.50;;;;;;4949808;28;20028;-81
2021/10/29 01:24:07;;;;;;;9.18;5.57;;;10.50;99.70;;;;;;4918397;29;20034;-81
2021/10/29 01:26:33;;;;;;;9.80;5.55;;;10.50;99.60;;;;;;4900654;29;20482;-82
2021/10/29 01:28:59;;;;;;;8.60;5.47;;;10.50;99.70;;;;;;4901370;29;20028;-81
2021/10/29 01:31:24;;;;;;;9.18;5.60;;;10.40;99.80;;;;;;4910396;29;20046;-81
2021/10/29 01:33:50;;;;;;;15.15;6.43;;;10.40;99.90;;;;;;4912996;29;20492;-81
2021/10/29 01:36:15;;;;;;;9.80;5.60;;;10.40;99.80;;;;;;4930965;29;20032;-82
2021/10/29 01:38:42;;;;;;;11.88;6.00;;;10.40;99.80;;;;;;4913111;29;20052;-82
2021/10/29 01:41:09;;;;;;;9.00;5.82;;;10.50;99.70;;;;;;4934880;28;20039;-81
2021/10/29 01:43:41;;;;;;;9.48;5.80;;;10.50;99.70;;;;;;4929010;29;20036;-81
2021/10/29 01:46:07;;;;;;;7.82;5.85;;;10.50;99.70;;;;;;4930720;29;20050;-82
2021/10/29 01:48:33;;;;;;;10.43;6.05;;;10.50;99.80;;;;;;4928014;29;20121;-81
2021/10/29 01:50:58;;;;;;;11.25;5.78;;;10.50;99.70;;;;;;4930501;29;20464;-81
2021/10/29 01:53:24;;;;;;;8.18;5.43;;;10.50;99.60;;;;;;4928698;29;20107;-81
2021/10/29 01:55:50;;;;;;;8.80;5.63;;;10.50;99.60;;;;;;4913191;29;20043;-81
2021/10/29 01:58:16;;;;;;;9.25;5.70;;;10.50;99.60;;;;;;4909320;29;20064;-81
2021/10/29 02:00:42;;;;;;;9.93;5.90;;;10.60;99.50;;;;;;4942578;28;20038;-81
2021/10/29 02:03:07;;;;;;;11.68;5.57;;;10.60;99.50;;;;;;4904363;29;20050;-80
2021/10/29 02:05:33;;;;;;;9.27;5.78;;;10.50;99.50;;;;;;4929450;29;20043;-81
2021/10/29 02:07:58;;;;;;;8.18;5.57;;;10.50;99.50;;;;;;4912851;29;20110;-81
2021/10/29 02:10:24;;;;;;;8.82;5.15;;;10.50;99.40;;;;;;4938781;28;20130;-81
2021/10/29 02:12:49;;;;;;;13.15;6.05;;;10.40;99.50;;;;;;4944997;28;20066;-81
2021/10/29 02:15:15;;;;;;;9.13;5.85;;;10.40;99.50;;;;;;4912472;29;20481;-81
2021/10/29 02:17:41;;;;;;;12.70;6.38;;;10.40;99.50;;;;;;4937730;29;20046;-81
2021/10/29 02:20:07;;;;;;;12.05;6.80;;;10.50;99.50;;;;;;4912928;29;20039;-81
2021/10/29 02:22:32;;;;;;;9.45;5.63;;;10.50;99.40;;;;;;4910638;28;20025;-81
2021/10/29 02:24:58;;;;;;;9.13;4.93;;;10.50;99.40;;;;;;4941969;28;20051;-81
2021/10/29 02:27:23;;;;;;;8.30;4.72;;;10.60;99.30;;;;;;4944102;29;20032;-81
2021/10/29 02:29:49;;;;;;;11.07;5.38;;;10.60;99.30;;;;;;4944217;28;20032;-81
2021/10/29 02:32:14;;;;;;;8.00;5.32;;;10.50;99.30;;;;;;4936630;28;20036;-81
2021/10/29 02:34:40;;;;;;;8.93;4.72;;;10.60;99.30;;;;;;4925490;29;20425;-81
2021/10/29 02:37:05;;;;;;;12.68;5.10;;;10.50;99.30;;;;;;4942843;28;20040;-81
2021/10/29 02:39:31;;;;;;;10.75;5.68;;;10.60;99.20;;;;;;4906764;29;20023;-81
2021/10/29 02:41:56;;;;;;;9.15;5.10;;;10.50;99.20;;;;;;4912681;29;20028;-81
2021/10/29 02:44:22;;;;;;;9.45;6.22;;;10.50;99.30;;;;;;4945339;28;20071;-81
2021/10/29 02:46:47;;;;;;;7.15;4.32;;;10.60;99.30;;;;;;4915859;28;20122;-81
2021/10/29 02:49:13;;;;;;;10.25;4.97;;;10.60;99.20;;;;;;4911446;29;20036;-81
2021/10/29 02:51:38;;;;;;;7.97;4.97;;;10.60;99.20;;;;;;4943004;28;20155;-80
2021/10/29 02:54:04;;;;;;;8.95;5.75;;;10.60;99.20;;;;;;4896566;28;20115;-80
2021/10/29 02:56:29;;;;;;;8.43;5.10;;;10.60;99.10;;;;;;4926489;29;20526;-80
2021/10/29 02:58:55;;;;;;;7.47;4.05;;;10.60;99.10;;;;;;4913454;29;20504;-80
2021/10/29 03:01:21;;;;;;;8.55;4.20;;;10.60;99.10;;;;;;4935458;28;20127;-81
2021/10/29 03:03:46;;;;;;;9.80;4.68;;;10.60;99.20;;;;;;4925000;28;20063;-81
2021/10/29 03:06:12;;;;;;;9.32;5.38;;;10.50;99.10;;;;;;4917509;29;20847;-81
2021/10/29 03:08:37;;;;;;;8.48;5.45;;;10.60;99.20;;;;;;4927093;29;20109;-81
2021/10/29 03:11:03;;;;;;;7.05;4.78;;;10.50;99.20;;;;;;4912984;29;20707;-81
2021/10/29 03:13:29;;;;;;;6.95;4.28;;;10.50;99.20;;;;;;4926249;29;20404;-81
2021/10/29 03:15:54;;;;;;;9.02;5.35;;;10.60;99.10;;;;;;4896343;29;20036;-81
2021/10/29 03:18:20;;;;;;;9.30;5.40;;;10.60;99.20;;;;;;4928204;28;20105;-81
2021/10/29 03:20:46;;;;;;;7.95;5.00;;;10.50;99.20;;;;;;4913060;29;20814;-80
2021/10/29 03:23:13;;;;;;;6.85;4.65;;;10.60;99.20;;;;;;4908462;29;20051;-80
2021/10/29 03:25:39;;;;;;;9.13;5.65;;;10.50;99.20;;;;;;4928286;29;20040;-81
2021/10/29 03:28:05;;;;;;;8.43;4.55;;;10.50;99.10;;;;;;4908367;29;20032;-80
2021/10/29 03:30:31;;;;;;;8.27;5.05;;;10.60;99.10;;;;;;4939912;28;20412;-83
2021/10/29 03:32:57;;;;;;;8.75;5.53;;;10.60;99.10;;;;;;4915152;29;20040;-80
2021/10/29 03:35:23;;;;;;;11.68;5.28;;;10.60;99.10;;;;;;4923330;29;20051;-80
2021/10/29 03:46:25;;;;;;;9.23;5.00;;;10.50;99.30;;;;;;4843092;29;20037;-80
2021/10/29 03:49:00;;;;;;;10.38;5.43;;;10.60;99.20;;;;;;4850786;29;20191;-80
2021/10/29 03:54:06;;;;;;;14.02;6.32;;;10.50;99.20;;;;;;4938594;29;20042;-79
2021/10/29 03:56:41;;;;;;;8.95;4.95;;;10.60;99.30;;;;;;4927623;29;20039;-79
2021/10/29 03:59:06;;;;;;;7.47;4.73;;;10.50;99.20;;;;;;4898608;29;20388;-79
2021/10/29 04:01:33;;;;;;;8.85;5.15;;;10.60;99.30;;;;;;4912864;29;20095;-79
2021/10/29 04:03:59;;;;;;;8.10;4.93;;;10.60;99.20;;;;;;4929957;29;20079;-79
2021/10/29 04:06:24;;;;;;;8.88;4.82;;;10.60;99.10;;;;;;4909929;29;20431;-79
2021/10/29 04:08:50;;;;;;;9.45;5.55;;;10.60;99.10;;;;;;4925914;29;20059;-79
2021/10/29 04:11:21;;;;;;;8.77;4.53;;;10.60;99.10;;;;;;4916731;29;20040;-79
2021/10/29 04:13:47;;;;;;;7.32;5.07;;;10.70;99.10;;;;;;4941748;28;20051;-79
2021/10/29 04:16:37;;;;;;;8.38;4.82;;;10.70;99.00;;;;;;4942941;28;20036;-79
2021/10/29 04:19:04;;;;;;;12.80;5.25;;;10.70;99.10;;;;;;4926449;29;20850;-79
2021/10/29 04:21:29;;;;;;;11.45;5.63;;;10.70;99.00;;;;;;4926983;29;20038;-79
2021/10/29 04:23:56;;;;;;;7.43;4.47;;;10.80;99.00;;;;;;4940971;28;20110;-79
2021/10/29 04:26:22;;;;;;;13.30;5.70;;;10.80;99.00;;;;;;4943404;28;20400;-79
2021/10/29 04:28:53;;;;;;;10.68;6.57;;;10.60;99.00;;;;;;4927732;29;20036;-80
2021/10/29 04:31:22;;;;;;;8.25;4.93;;;10.70;99.10;;;;;;4912996;29;20559;-79
2021/10/29 04:33:48;;;;;;;10.18;5.07;;;10.70;99.00;;;;;;4944779;28;20039;-80
2021/10/29 04:36:14;;;;;;;8.82;5.90;;;10.70;99.00;;;;;;4925944;29;20091;-80
2021/10/29 04:38:40;;;;;;;10.98;5.45;;;10.70;99.00;;;;;;4926328;29;20082;-79
2021/10/29 04:41:05;;;;;;;11.70;5.13;;;10.70;99.00;;;;;;4894964;29;20033;-80
2021/10/29 04:43:31;;;;;;;10.40;5.82;;;10.70;99.00;;;;;;4924321;29;20555;-80
2021/10/29 04:45:56;;;;;;;9.63;4.53;;;10.70;98.90;;;;;;4900802;29;20050;-80
2021/10/29 04:48:22;;;;;;;6.20;4.38;;;10.70;98.90;;;;;;4909805;29;20044;-80
2021/10/29 04:50:47;;;;;;;7.22;4.50;;;10.70;98.90;;;;;;4930280;29;20066;-80
2021/10/29 04:53:13;;;;;;;9.40;5.20;;;10.70;98.90;;;;;;4925965;29;20079;-80
2021/10/29 04:55:39;;;;;;;8.77;5.07;;;10.70;98.90;;;;;;4930485;29;20043;-80
2021/10/29 04:58:06;;;;;;;6.63;5.10;;;10.80;99.00;;;;;;4912769;29;20043;-80
2021/10/29 05:00:32;;;;;;;9.68;5.35;;;10.70;99.00;;;;;;4942945;28;20400;-80
2021/10/29 05:02:59;;;;;;;10.48;5.55;;;10.70;98.90;;;;;;4929458;29;20047;-80
2021/10/29 05:05:25;;;;;;;10.60;4.80;;;10.70;99.00;;;;;;4914892;29;20036;-80
2021/10/29 05:07:58;;;;;;;9.68;6.25;;;10.60;99.10;;;;;;4917003;29;20368;-80
2021/10/29 05:10:24;;;;;;;8.55;4.97;;;10.70;99.00;;;;;;4907741;29;20123;-80
2021/10/29 05:12:49;;;;;;;12.80;5.32;;;10.70;99.00;;;;;;4912698;28;20107;-80
2021/10/29 05:15:17;;;;;;;7.28;4.57;;;10.80;99.00;;;;;;4927279;29;20122;-80
2021/10/29 05:17:43;;;;;;;8.98;5.25;;;10.80;98.90;;;;;;4937269;28;20027;-79
2021/10/29 05:20:09;;;;;;;8.75;5.00;;;10.70;98.90;;;;;;4912057;29;20040;-79
2021/10/29 05:22:35;;;;;;;11.98;5.25;;;10.80;98.80;;;;;;4928379;28;20074;-80
2021/10/29 05:25:01;;;;;;;12.25;5.38;;;10.80;98.70;;;;;;4897057;28;20076;-79
2021/10/29 05:27:26;;;;;;;8.57;5.22;;;10.80;98.80;;;;;;4946148;28;20044;-80
2021/10/29 05:29:52;;;;;;;10.52;5.15;;;10.80;98.80;;;;;;4924496;29;20024;-80
2021/10/29 05:32:17;;;;;;;6.10;4.57;;;10.90;98.70;;;;;;4943780;28;20452;-80
2021/10/29 05:34:43;;;;;;;8.75;4.55;;;10.90;98.70;;;;;;4928802;29;20391;-80
2021/10/29 05:37:08;;;;;;;9.07;4.88;;;10.90;98.60;;;;;;4929499;29;20541;-80
2021/10/29 05:39:35;;;;;;;9.40;4.63;;;10.90;98.90;;;;;;4939672;28;20024;-81
2021/10/29 05:42:01;;;;;;;7.28;4.88;;;10.90;98.60;;;;;;4914692;29;20437;-81
2021/10/29 05:44:27;;;;;;;10.50;4.43;;;10.90;98.80;;;;;;4943119;28;20024;-82
2021/10/29 05:46:52;;;;;;;9.73;5.00;;;10.90;98.70;;;;;;4919256;29;20126;-81
2021/10/29 05:49:18;;;;;;;8.55;4.13;;;10.90;98.60;;;;;;4915365;28;20110;-81
2021/10/29 05:51:45;;;;;;;5.47;4.40;;;10.90;98.60;;;;;;4909389;28;20032;-81
2021/10/29 05:56:40;;;;;;;10.23;4.65;;;10.80;98.70;;;;;;4925741;29;20051;-81
2021/10/29 05:59:06;;;;;;;9.50;4.55;;;10.90;98.60;;;;;;4897014;29;20478;-81
2021/10/29 06:01:32;;;;;;;8.55;4.18;;;10.90;98.50;;;;;;4941518;28;20134;-81
2021/10/29 06:03:58;;;;;;;7.72;4.43;;;10.90;98.50;;;;;;4914450;29;20036;-81
2021/10/29 06:06:23;;;;;;;6.82;3.92;;;10.90;98.40;;;;;;4943551;28;20118;-81
2021/10/29 06:08:49;;;;;;;6.00;3.97;;;10.90;98.40;;;;;;4916068;29;20413;-81
2021/10/29 06:11:14;;;;;;;6.72;4.40;;;10.80;98.50;;;;;;4911961;29;20657;-81
2021/10/29 06:13:41;;;;;;;8.65;5.05;;;10.70;98.60;;;;;;4943410;29;20787;-81
2021/10/29 06:16:09;;;;;;;8.48;4.47;;;10.80;98.50;;;;;;4897815;29;20031;-81
2021/10/29 06:18:34;;;;;;;8.23;4.38;;;10.80;98.50;;;;;;4936810;28;20114;-81
2021/10/29 06:21:00;;;;;;;7.35;4.10;;;10.90;98.50;;;;;;4940565;28;20179;-81
2021/10/29 06:23:34;;;;;;;9.80;4.28;;;10.90;98.30;;;;;;4929782;29;20491;-81
2021/10/29 06:26:01;;;;;;;5.57;3.60;;;10.90;98.20;;;;;;4925449;29;20032;-81
2021/10/29 06:28:30;;;;;;;7.25;4.18;;;11.00;98.40;;;;;;4941523;28;20082;-81
2021/10/29 06:30:56;;;;;;;6.85;3.72;;;10.90;98.40;;;;;;4926014;29;20027;-81
2021/10/29 06:33:23;;;;;;;8.07;4.72;;;10.80;98.30;;;;;;4916051;29;20051;-81
2021/10/29 06:35:54;;;;;;;10.43;4.45;;;10.90;98.30;;;;;;4747615;29;10001016;-81
2021/10/29 06:38:22;;;;;;;5.93;4.22;;;10.80;98.40;;;;;;4581675;29;10000421;-81
2021/10/29 06:40:49;;;;;;;8.50;4.40;;;10.90;98.50;;;;;;4925525;28;20619;-81
2021/10/29 06:43:22;;;;;;;10.00;4.60;;;10.90;98.40;;;;;;4927594;29;20028;-81
2021/10/29 06:48:48;;;;;;;9.27;5.15;;;10.90;98.30;;;;;;4914386;29;20955;-81
2021/10/29 06:59:41;;;;;;;10.25;5.72;;;10.80;98.20;;;;;;4911730;29;20448;-81
2021/10/29 07:02:39;;;;;;;9.00;5.10;;;10.90;98.30;;;;;;4891861;29;20040;-80
2021/10/29 07:40:42;;;;;;;9.38;5.65;;;11.00;98.40;;;;;;4907206;29;20598;-80
2021/10/29 07:43:10;;;;;;;13.68;5.72;;;10.90;98.40;;;;;;4921422;29;20484;-81
2021/10/29 07:45:36;;;;;;;6.50;4.00;;;11.00;98.50;;;;;;4909347;29;20031;-81
2021/10/29 07:48:02;;;;;;;10.20;5.38;;;11.10;98.50;;;;;;4907692;29;20122;-81
2021/10/29 07:50:27;;;;;;;10.77;5.93;;;11.20;98.40;;;;;;4924580;29;20095;-81
2021/10/29 07:52:54;;;;;;;8.68;5.03;;;11.20;98.40;;;;;;4912060;29;20043;-80
2021/10/29 07:55:21;;;;;;;8.30;5.63;;;11.50;98.10;;;;;;4913144;29;20113;-81
2021/10/29 07:57:47;;;;;;;11.10;5.32;;;11.40;98.30;;;;;;4916625;29;20548;-81
2021/10/29 08:00:14;;;;;;;8.20;5.15;;;11.50;98.10;;;;;;4914916;29;20103;-81
2021/10/29 08:02:40;;;;;;;8.88;5.22;;;11.60;98.00;;;;;;4933119;29;20115;-81
2021/10/29 08:05:05;;;;;;;9.40;5.78;;;11.60;98.10;;;;;;4896150;29;20140;-82
2021/10/29 08:07:31;;;;;;;13.10;6.32;;;11.70;98.10;;;;;;4916237;29;20043;-82
2021/10/29 08:09:57;;;;;;;9.48;6.43;;;11.90;97.80;;;;;;4901211;29;20107;-82
2021/10/29 08:12:25;;;;;;;8.48;5.65;;;12.00;97.60;;;;;;4917999;29;20122;-82
2021/10/29 08:14:51;;;;;;;10.90;5.30;;;11.90;97.70;;;;;;4930648;29;20571;-82
2021/10/29 08:17:17;;;;;;;10.93;4.90;;;12.20;97.40;;;;;;4915296;29;20063;-81
2021/10/29 08:19:43;;;;;;;10.35;5.15;;;12.10;97.60;;;;;;4931791;29;20082;-81
2021/10/29 08:22:09;;;;;;;9.95;5.10;;;12.20;97.70;;;;;;4905165;28;20051;-82
2021/10/29 08:24:38;;;;;;;11.82;6.38;;;12.30;97.40;;;;;;4925809;29;20083;-82
2021/10/29 08:27:05;;;;;;;10.63;6.13;;;12.40;97.40;;;;;;4917728;28;20510;-82
2021/10/29 08:29:30;;;;;;;10.07;5.68;;;12.30;97.70;;;;;;4942568;28;20385;-81
2021/10/29 08:31:56;;;;;;;7.13;5.28;;;12.60;97.30;;;;;;4915371;29;20020;-82
2021/10/29 08:34:24;;;;;;;10.48;5.75;;;12.60;97.10;;;;;;4919098;29;20478;-82
2021/10/29 08:36:59;;;;;;;8.13;4.18;;;12.60;97.20;;;;;;4915777;29;20035;-81
2021/10/29 08:39:26;;;;;;;6.82;4.93;;;13.00;96.70;;;;;;4909711;29;20053;-82
2021/10/29 08:41:52;;;;;;;11.10;6.25;;;13.20;96.20;;;;;;4928810;29;20027;-82
2021/10/29 08:44:18;;;;;;;8.13;5.45;;;13.10;96.20;;;;;;4939602;28;20460;-82
2021/10/29 08:46:43;;;;;;;15.45;7.32;;;13.00;96.40;;;;;;4940328;28;20103;-82
2021/10/29 08:49:09;;;;;;;9.70;6.50;;;13.10;96.40;;;;;;4901496;29;20040;-82
2021/10/29 08:51:38;;;;;;;10.57;5.65;;;13.20;96.30;;;;;;4913010;29;20035;-82
2021/10/29 08:54:04;;;;;;;6.68;3.72;;;13.30;96.20;;;;;;4926666;29;20032;-82
2021/10/29 08:56:30;;;;;;;9.85;6.15;;;13.30;96.10;;;;;;4942620;28;20028;-82
2021/10/29 08:59:20;;;;;;;12.52;6.60;;;13.30;95.80;;;;;;4930539;28;20034;-82
2021/10/29 09:02:01;;;;;;;7.43;5.60;;;13.40;95.70;;;;;;4939355;28;20192;-82
2021/10/29 09:04:38;;;;;;;12.32;6.10;;;13.40;95.80;;;;;;4915015;29;20039;-82
2021/10/29 09:31:28;;;;;;;9.15;5.97;;;15.00;94.20;;;;;;4925231;29;20035;-82
2021/10/29 09:33:59;;;;;;;8.88;5.00;;;15.30;93.80;;;;;;4925612;29;20495;-81
2021/10/29 09:36:36;;;;;;;7.78;4.50;;;15.30;93.50;;;;;;4921171;29;20095;-82
2021/10/29 09:39:16;;;;;;;8.02;4.65;;;15.30;93.90;;;;;;4912693;29;20103;-81
2021/10/29 09:41:42;;;;;;;4.45;3.15;;;15.50;93.40;;;;;;4927404;29;20511;-82
2021/10/29 09:44:16;;;;;;;8.10;4.57;;;15.40;93.80;;;;;;4897670;29;20027;-82
2021/10/29 09:46:58;;;;;;;10.05;5.25;;;15.60;93.20;;;;;;4940793;28;20047;-82
2021/10/29 09:49:31;;;;;;;7.03;3.67;;;15.80;93.20;;;;;;4915217;29;20048;-82
2021/10/29 09:57:18;;;;;;;8.77;4.55;;;16.30;91.90;;;;;;4909005;29;20067;-82
2021/10/29 09:59:44;;;;;;;8.05;3.65;;;16.40;92.30;;;;;;4924672;29;20567;-82
2021/10/29 10:02:24;;;;;;;8.27;4.20;;;16.60;91.80;;;;;;4927435;29;20032;-82
2021/10/29 10:04:50;;;;;;;8.07;4.50;;;16.50;91.60;;;;;;4911228;28;20126;-82
2021/10/29 10:07:33;;;;;;;5.10;3.92;;;16.90;91.30;;;;;;4940782;29;20054;-82
2021/10/29 10:10:00;;;;;;;7.32;4.15;;;16.80;90.90;;;;;;4920419;29;20464;-81
2021/10/29 10:12:37;;;;;;;8.00;4.50;;;16.90;91.10;;;;;;4912729;29;20031;-81
2021/10/29 10:15:04;;;;;;;6.38;5.32;;;17.00;91.20;;;;;;4924303;29;20087;-82
2021/10/29 10:17:29;;;;;;;7.20;4.45;;;16.80;91.30;;;;;;4935019;28;20087;-81
2021/10/29 10:19:56;;;;;;;7.82;4.72;;;17.00;90.80;;;;;;4924737;29;20036;-83
2021/10/29 10:22:25;;;;;;;6.90;4.88;;;17.00;91.10;;;;;;4916737;29;20074;-82
2021/10/29 10:25:00;;;;;;;11.23;5.60;;;17.20;90.40;;;;;;4570232;29;10000406;-82
2021/10/29 10:40:58;;;;;;;6.32;4.60;;;16.80;90.90;;;;;;4913904;29;20098;-82
2021/10/29 10:48:43;;;;;;;6.60;4.50;;;16.90;91.00;;;;;;4920949;29;20036;-81
2021/10/29 10:51:41;;;;;;;6.50;4.78;;;17.10;90.40;;;;;;4911938;29;20031;-82
2021/10/29 11:00:14;;;;;;;8.40;3.53;;;17.40;89.70;;;;;;4925317;29;20086;-82
2021/10/29 11:05:42;;;;;;;8.25;4.60;;;17.50;90.00;;;;;;4920582;29;20024;-82
2021/10/29 11:11:15;;;;;;;4.88;3.72;;;17.50;89.00;;;;;;4921592;29;20060;-82
2021/10/29 11:13:43;;;;;;;4.57;3.60;;;17.50;90.00;;;;;;4925114;29;20033;-82
2021/10/29 11:16:28;;;;;;;6.35;3.92;;;17.50;88.90;;;;;;4926102;29;20408;-82
2021/10/29 11:19:05;;;;;;;5.38;3.55;;;17.50;89.20;;;;;;4923592;29;20404;-82
2021/10/29 11:21:35;;;;;;;5.53;4.20;;;17.40;89.10;;;;;;4922960;29;20036;-82
2021/10/29 11:24:04;;;;;;;5.82;4.05;;;17.50;89.10;;;;;;4896071;29;20570;-81
2021/10/29 11:26:41;;;;;;;6.85;3.65;;;17.70;89.30;;;;;;4913079;29;20039;-82
2021/10/29 11:29:07;;;;;;;6.47;3.85;;;17.80;87.70;;;;;;4914258;29;20166;-82
2021/10/29 11:31:51;;;;;;;9.55;4.20;;;17.80;88.10;;;;;;4918667;28;20040;-81
2021/10/29 11:34:18;;;;;;;4.07;3.40;;;18.10;88.50;;;;;;4919292;29;20040;-82
2021/10/29 11:36:53;;;;;;;5.47;4.05;;;18.00;88.10;;;;;;4915441;28;20036;-82
2021/10/29 11:39:21;;;;;;;6.63;3.40;;;18.20;86.60;;;;;;4925956;29;20048;-82
2021/10/29 11:41:48;;;;;;;8.40;2.97;;;18.40;86.00;;;;;;4909970;29;20044;-82
2021/10/29 11:44:15;;;;;;;3.67;2.90;;;18.30;86.70;;;;;;4913254;28;20032;-83
2021/10/29 11:46:42;;;;;;;8.32;4.82;;;18.30;87.00;;;;;;4911904;29;20092;-81
2021/10/29 11:49:09;;;;;;;5.80;3.90;;;18.10;87.60;;;;;;4911941;29;20056;-82
2021/10/29 11:51:35;;;;;;;6.78;3.92;;;18.30;88.10;;;;;;4929556;29;20036;-82
2021/10/29 12:07:41;;;;;;;5.82;3.75;;;18.40;85.90;;;;;;4935568;29;20050;-83
2021/10/29 12:10:10;;;;;;;5.75;3.83;;;18.50;86.40;;;;;;4902849;29;20039;-82
2021/10/29 12:12:38;;;;;;;4.30;2.97;;;18.40;85.80;;;;;;4936417;28;20028;-82
2021/10/29 12:15:21;;;;;;;4.00;3.50;;;18.40;86.40;;;;;;4916463;29;20035;-82
2021/10/29 12:18:00;;;;;;;5.10;3.28;;;18.20;86.20;;;;;;4918540;29;20052;-82
2021/10/29 12:20:32;;;;;;;5.28;4.03;;;18.40;88.40;;;;;;4935367;29;20028;-83
2021/10/29 12:23:12;;;;;;;5.65;3.83;;;18.60;87.60;;;;;;4920785;28;20620;-82
2021/10/29 12:25:43;;;;;;;7.93;2.50;;;18.70;86.30;;;;;;4926067;28;20027;-83
2021/10/29 13:03:09;;;;;;;6.47;3.53;;;18.70;84.20;;;;;;4921885;28;20031;-82
2021/10/29 13:05:37;;;;;;;4.80;2.80;;;18.70;84.90;;;;;;4930778;28;20054;-82
2021/10/29 13:08:19;;;;;;;5.05;3.05;;;18.60;85.20;;;;;;4919406;29;20039;-82
2021/10/29 13:10:46;;;;;;;3.58;2.92;;;18.50;84.80;;;;;;4899524;28;20713;-82
2021/10/29 13:13:22;;;;;;;4.10;3.08;;;18.40;84.70;;;;;;4904454;29;20039;-83
2021/10/29 13:15:51;;;;;;;4.38;3.10;;;18.40;85.90;;;;;;4921770;28;20035;-82
2021/10/29 13:18:21;;;;;;;4.00;2.95;;;18.50;86.80;;;;;;4918879;28;20098;-82
2021/10/29 13:28:32;;;;;;;5.43;2.95;;;18.40;85.60;;;;;;4938949;28;21085;-82
2021/10/29 13:36:50;;;;;;;4.30;2.90;;;18.30;86.60;;;;;;4918834;29;20035;-83
2021/10/29 14:03:09;;;;;;;5.63;3.00;;;18.60;85.60;;;;;;4932723;28;20035;-83
2021/10/29 14:16:25;;;;;;;3.10;2.58;;;18.80;85.40;;;;;;4916446;29;20039;-83
2021/10/29 14:24:27;;;;;;;4.25;2.42;;;18.90;84.20;;;;;;4924666;28;20668;-82
2021/10/29 14:30:27;;;;;;;5.05;2.72;;;18.90;84.20;;;;;;4940282;28;20103;-83
2021/10/29 14:32:58;;;;;;;3.00;2.35;;;18.70;84.50;;;;;;4916526;28;20124;-83
2021/10/29 14:35:37;;;;;;;6.88;3.47;;;18.70;84.70;;;;;;4940616;28;20393;-83
2021/10/29 14:40:43;;;;;;;6.22;2.35;;;18.80;84.20;;;;;;4913603;28;20040;-83
2021/10/29 14:43:15;;;;;;;3.08;2.20;;;18.80;84.50;;;;;;4926774;29;20122;-83
2021/10/29 15:00:09;;;;;;;2.33;1.60;;;18.60;84.90;;;;;;4923638;29;20036;-83
2021/10/29 15:07:25;;;;;;;3.78;2.03;;;18.40;86.20;;;;;;4922562;29;20043;-83
2021/10/29 15:18:07;;;;;;;3.53;2.85;;;18.20;86.60;;;;;;4896473;29;20028;-83
2021/10/29 15:31:36;;;;;;;2.95;2.55;;;17.90;86.90;;;;;;4894855;29;20043;-81
2021/10/29 15:44:36;;;;;;;4.68;2.58;;;17.50;87.60;;;;;;4897132;29;20039;-83
2021/10/29 15:47:06;;;;;;;5.82;2.72;;;17.50;88.40;;;;;;4882800;29;20409;-83
2021/10/29 15:49:37;;;;;;;3.20;2.90;;;17.40;88.60;;;;;;4897184;29;20055;-83
2021/10/29 15:52:12;;;;;;;5.70;2.65;;;17.30;88.80;;;;;;4901368;29;20130;-82
2021/10/29 15:54:47;;;;;;;3.67;2.45;;;17.10;89.40;;;;;;4901202;29;20144;-83
2021/10/29 15:57:15;;;;;;;3.63;2.30;;;17.00;89.80;;;;;;4881918;29;20031;-83
2021/10/29 15:59:48;;;;;;;4.05;2.83;;;16.90;90.00;;;;;;4882911;29;20035;-83
2021/10/29 16:02:27;;;;;;;4.35;2.30;;;16.90;90.00;;;;;;4890730;29;20047;-83
2021/10/29 16:18:34;;;;;;;2.97;2.17;;;16.30;90.60;;;;;;4913962;29;20900;-81
2021/10/29 16:21:00;;;;;;;8.07;2.58;;;16.30;90.70;;;;;;4929538;29;20032;-81
2021/10/29 16:23:28;;;;;;;5.25;2.75;;;16.10;90.80;;;;;;4945421;28;20071;-83
2021/10/29 16:26:01;;;;;;;5.25;3.40;;;16.00;90.80;;;;;;4934354;28;20555;-81
2021/10/29 16:28:32;;;;;;;3.38;2.70;;;16.00;90.70;;;;;;4930275;29;20087;-83
2021/10/29 16:30:59;;;;;;;4.35;2.55;;;15.90;91.20;;;;;;4930725;29;20028;-83
2021/10/29 16:33:26;;;;;;;6.03;3.58;;;15.80;91.40;;;;;;4912761;29;20049;-83
2021/10/29 16:35:52;;;;;;;6.10;3.75;;;15.80;91.40;;;;;;4926171;29;20040;-80
2021/10/29 16:38:18;;;;;;;5.93;2.90;;;15.60;91.40;;;;;;4939447;29;20433;-81
2021/10/29 16:40:43;;;;;;;6.53;4.07;;;15.60;91.50;;;;;;4929729;29;20123;-81
2021/10/29 16:43:09;;;;;;;5.15;3.33;;;15.60;91.60;;;;;;4931082;29;20039;-80
2021/10/29 16:45:41;;;;;;;7.78;2.50;;;15.60;91.40;;;;;;4926947;29;20031;-81
2021/10/29 16:48:06;;;;;;;5.03;2.88;;;15.60;91.70;;;;;;4928908;29;20032;-81
2021/10/29 16:50:32;;;;;;;6.53;3.42;;;15.50;91.70;;;;;;4915188;29;20028;-81
2021/10/29 16:52:57;;;;;;;5.15;3.45;;;15.40;91.80;;;;;;4916126;29;20043;-82
2021/10/29 16:55:23;;;;;;;7.18;3.90;;;15.20;91.80;;;;;;4944730;28;20158;-83
2021/10/29 16:57:48;;;;;;;6.72;4.55;;;15.10;91.80;;;;;;4930102;29;20035;-82
2021/10/29 17:00:14;;;;;;;9.02;4.18;;;15.20;91.90;;;;;;4911980;29;20512;-81
2021/10/29 17:02:40;;;;;;;10.57;5.82;;;15.20;92.30;;;;;;4934983;29;20024;-82
2021/10/29 17:05:10;;;;;;;26.38;14.95;;;15.10;92.20;;;;;;4907734;29;20050;-81
2021/10/29 17:07:35;;;;;;;11.43;9.75;;;15.00;92.20;;;;;;4944301;28;20031;-83
2021/10/29 17:10:35;;;;;;;14.23;7.32;;;15.00;92.10;;;;;;4898199;29;20137;-83
2021/10/29 17:13:01;;;;;;;11.70;4.85;;;15.00;92.30;;;;;;4900767;29;20494;-83
2021/10/29 17:15:26;;;;;;;9.65;3.90;;;14.90;92.40;;;;;;4928193;28;20032;-83
2021/10/29 17:17:52;;;;;;;7.20;4.40;;;14.80;92.40;;;;;;4928195;29;20031;-83
2021/10/29 17:20:18;;;;;;;8.98;4.82;;;14.90;92.70;;;;;;4927582;29;20047;-83
2021/10/29 17:22:43;;;;;;;6.20;4.22;;;14.80;92.40;;;;;;4913820;29;20058;-82
2021/10/29 17:25:11;;;;;;;7.72;4.53;;;14.70;92.70;;;;;;4911652;29;20122;-83
2021/10/29 17:27:36;;;;;;;8.70;4.95;;;14.70;92.80;;;;;;4925866;29;20499;-83
2021/10/29 17:30:03;;;;;;;7.90;4.47;;;14.70;92.60;;;;;;4914677;28;20036;-83
2021/10/29 17:32:28;;;;;;;4.97;3.97;;;14.80;92.70;;;;;;4926960;29;20027;-83
2021/10/29 17:34:55;;;;;;;4.60;3.70;;;14.80;92.70;;;;;;4943690;28;20587;-83
2021/10/29 17:37:20;;;;;;;8.55;4.88;;;14.70;92.90;;;;;;4918440;29;20100;-83
2021/10/29 17:39:46;;;;;;;4.25;3.53;;;14.70;92.70;;;;;;4910845;29;20119;-83